sensor_id;sensor_type;location;lat;lon;timestamp;P1;durP1;ratioP1;P2;durP2;ratioP2
44446;SDS011;30152;52.066;5.358;2022-07-23T07:00:24;2.13;;;0.93;;
44446;SDS011;30152;52.066;5.358;2022-07-23T07:02:53;5.22;;;1.55;;
44446;SDS011;30152;52.066;5.358;2022-07-23T07:05:19;1.40;;;0.63;;
44446;SDS011;30152;52.066;5.358;2022-07-23T07:07:45;1.83;;;0.75;;
44446;SDS011;30152;52.066;5.358;2022-07-23T07:10:11;2.55;;;0.93;;
44446;SDS011;30152;52.066;5.358;2022-07-23T07:12:37;2.03;;;0.73;;
44446;SDS011;30152;52.066;5.358;2022-07-23T07:15:03;4.50;;;1.30;;
44446;SDS011;30152;52.066;5.358;2022-07-23T07:17:29;1.65;;;0.70;;
44446;SDS011;30152;52.066;5.358;2022-07-23T07:19:55;3.45;;;1.40;;
44446;SDS011;30152;52.066;5.358;2022-07-23T07:22:20;3.90;;;0.98;;
44446;SDS011;30152;52.066;5.358;2022-07-23T07:24:46;2.20;;;0.80;;
44446;SDS011;30152;52.066;5.358;2022-07-23T07:27:12;4.22;;;1.00;;
44446;SDS011;30152;52.066;5.358;2022-07-23T07:29:38;6.50;;;1.50;;
44446;SDS011;30152;52.066;5.358;2022-07-23T07:32:04;2.85;;;1.00;;
44446;SDS011;30152;52.066;5.358;2022-07-23T07:34:30;2.58;;;1.00;;
44446;SDS011;30152;52.066;5.358;2022-07-23T07:36:56;4.45;;;1.33;;
44446;SDS011;30152;52.066;5.358;2022-07-23T07:39:22;3.95;;;0.88;;
44446;SDS011;30152;52.066;5.358;2022-07-23T07:41:48;5.03;;;1.75;;
44446;SDS011;30152;52.066;5.358;2022-07-23T07:44:14;8.02;;;1.52;;
44446;SDS011;30152;52.066;5.358;2022-07-23T07:46:41;3.15;;;1.13;;
44446;SDS011;30152;52.066;5.358;2022-07-23T07:49:07;3.55;;;0.95;;
44446;SDS011;30152;52.066;5.358;2022-07-23T07:51:33;5.20;;;1.20;;
44446;SDS011;30152;52.066;5.358;2022-07-23T07:53:59;3.38;;;1.20;;
44446;SDS011;30152;52.066;5.358;2022-07-23T07:56:25;3.17;;;1.02;;
44446;SDS011;30152;52.066;5.358;2022-07-23T07:58:51;5.95;;;1.25;;
44446;SDS011;30152;52.066;5.358;2022-07-23T08:01:17;4.10;;;1.10;;
44446;SDS011;30152;52.066;5.358;2022-07-23T08:03:44;2.97;;;1.02;;
44446;SDS011;30152;52.066;5.358;2022-07-23T08:06:10;4.10;;;1.30;;
44446;SDS011;30152;52.066;5.358;2022-07-23T08:08:36;2.38;;;0.77;;
44446;SDS011;30152;52.066;5.358;2022-07-23T08:11:02;3.03;;;1.10;;
44446;SDS011;30152;52.066;5.358;2022-07-23T08:13:28;4.95;;;1.20;;
44446;SDS011;30152;52.066;5.358;2022-07-23T08:15:54;2.50;;;1.00;;
44446;SDS011;30152;52.066;5.358;2022-07-23T08:18:20;6.75;;;1.20;;
44446;SDS011;30152;52.066;5.358;2022-07-23T08:20:46;3.28;;;1.15;;
44446;SDS011;30152;52.066;5.358;2022-07-23T08:23:12;3.38;;;0.90;;
44446;SDS011;30152;52.066;5.358;2022-07-23T08:25:39;2.50;;;0.70;;
44446;SDS011;30152;52.066;5.358;2022-07-23T08:28:06;3.03;;;0.60;;
44446;SDS011;30152;52.066;5.358;2022-07-23T08:30:32;1.98;;;0.65;;
44446;SDS011;30152;52.066;5.358;2022-07-23T08:33:02;3.35;;;0.88;;
44446;SDS011;30152;52.066;5.358;2022-07-23T08:35:32;7.80;;;1.40;;
44446;SDS011;30152;52.066;5.358;2022-07-23T08:38:00;2.83;;;0.90;;
44446;SDS011;30152;52.066;5.358;2022-07-23T08:40:26;5.05;;;1.02;;
44446;SDS011;30152;52.066;5.358;2022-07-23T08:42:53;5.18;;;1.30;;
44446;SDS011;30152;52.066;5.358;2022-07-23T08:45:20;4.93;;;0.98;;
44446;SDS011;30152;52.066;5.358;2022-07-23T08:47:50;3.83;;;1.15;;
44446;SDS011;30152;52.066;5.358;2022-07-23T08:50:16;3.45;;;0.90;;
44446;SDS011;30152;52.066;5.358;2022-07-23T08:52:42;4.22;;;0.98;;
44446;SDS011;30152;52.066;5.358;2022-07-23T08:55:08;3.83;;;0.98;;
44446;SDS011;30152;52.066;5.358;2022-07-23T08:57:34;2.33;;;1.05;;
44446;SDS011;30152;52.066;5.358;2022-07-23T09:00:00;6.05;;;1.15;;
44446;SDS011;30152;52.066;5.358;2022-07-23T09:02:26;2.38;;;0.80;;
44446;SDS011;30152;52.066;5.358;2022-07-23T09:04:52;3.08;;;0.77;;
44446;SDS011;30152;52.066;5.358;2022-07-23T09:07:18;6.28;;;1.33;;
44446;SDS011;30152;52.066;5.358;2022-07-23T09:09:44;2.05;;;0.65;;
44446;SDS011;30152;52.066;5.358;2022-07-23T09:12:10;3.42;;;0.77;;
44446;SDS011;30152;52.066;5.358;2022-07-23T09:14:37;3.78;;;0.55;;
44446;SDS011;30152;52.066;5.358;2022-07-23T09:17:18;3.28;;;0.70;;
44446;SDS011;30152;52.066;5.358;2022-07-23T09:19:44;3.17;;;0.63;;
44446;SDS011;30152;52.066;5.358;2022-07-23T09:22:44;4.53;;;0.70;;
44446;SDS011;30152;52.066;5.358;2022-07-23T09:25:10;3.10;;;0.70;;
44446;SDS011;30152;52.066;5.358;2022-07-23T09:27:47;3.72;;;0.82;;
44446;SDS011;30152;52.066;5.358;2022-07-23T09:30:15;2.60;;;0.70;;
44446;SDS011;30152;52.066;5.358;2022-07-23T09:32:40;2.58;;;0.60;;
44446;SDS011;30152;52.066;5.358;2022-07-23T09:35:07;1.77;;;0.60;;
44446;SDS011;30152;52.066;5.358;2022-07-23T09:37:33;2.03;;;0.60;;
44446;SDS011;30152;52.066;5.358;2022-07-23T09:40:07;3.45;;;1.13;;
44446;SDS011;30152;52.066;5.358;2022-07-23T09:42:34;1.92;;;0.57;;
44446;SDS011;30152;52.066;5.358;2022-07-23T09:45:00;4.53;;;0.50;;
44446;SDS011;30152;52.066;5.358;2022-07-23T09:47:27;1.23;;;0.35;;
44446;SDS011;30152;52.066;5.358;2022-07-23T09:52:29;2.40;;;0.60;;
44446;SDS011;30152;52.066;5.358;2022-07-23T09:54:59;2.45;;;0.70;;
44446;SDS011;30152;52.066;5.358;2022-07-23T09:57:26;2.15;;;0.68;;
44446;SDS011;30152;52.066;5.358;2022-07-23T09:59:52;3.17;;;0.98;;
44446;SDS011;30152;52.066;5.358;2022-07-23T10:02:18;2.42;;;0.55;;
44446;SDS011;30152;52.066;5.358;2022-07-23T10:04:45;2.97;;;0.60;;
44446;SDS011;30152;52.066;5.358;2022-07-23T10:07:11;2.78;;;0.40;;
44446;SDS011;30152;52.066;5.358;2022-07-23T10:09:42;1.30;;;0.50;;
44446;SDS011;30152;52.066;5.358;2022-07-23T10:12:12;1.58;;;0.50;;
44446;SDS011;30152;52.066;5.358;2022-07-23T10:14:56;1.77;;;0.57;;
44446;SDS011;30152;52.066;5.358;2022-07-23T10:17:22;1.55;;;0.60;;
44446;SDS011;30152;52.066;5.358;2022-07-23T10:19:49;3.45;;;0.98;;
44446;SDS011;30152;52.066;5.358;2022-07-23T10:22:18;6.28;;;1.95;;
44446;SDS011;30152;52.066;5.358;2022-07-23T10:30:04;3.83;;;0.55;;
44446;SDS011;30152;52.066;5.358;2022-07-23T10:37:37;1.17;;;0.40;;
44446;SDS011;30152;52.066;5.358;2022-07-23T10:40:12;3.00;;;0.88;;
44446;SDS011;30152;52.066;5.358;2022-07-23T10:42:38;3.75;;;0.88;;
44446;SDS011;30152;52.066;5.358;2022-07-23T10:45:27;3.15;;;0.80;;
44446;SDS011;30152;52.066;5.358;2022-07-23T10:47:52;1.80;;;0.68;;
44446;SDS011;30152;52.066;5.358;2022-07-23T10:57:55;1.58;;;0.68;;
44446;SDS011;30152;52.066;5.358;2022-07-23T11:00:24;0.98;;;0.30;;
44446;SDS011;30152;52.066;5.358;2022-07-23T11:02:52;1.45;;;0.40;;
44446;SDS011;30152;52.066;5.358;2022-07-23T11:05:19;1.83;;;0.75;;
44446;SDS011;30152;52.066;5.358;2022-07-23T11:31:51;1.27;;;0.40;;
44446;SDS011;30152;52.066;5.358;2022-07-23T11:34:28;0.85;;;0.40;;
44446;SDS011;30152;52.066;5.358;2022-07-23T11:36:55;2.20;;;0.43;;
44446;SDS011;30152;52.066;5.358;2022-07-23T11:39:21;132.13;;;77.78;;
44446;SDS011;30152;52.066;5.358;2022-07-23T11:41:50;2.83;;;1.25;;
44446;SDS011;30152;52.066;5.358;2022-07-23T11:44:26;74.50;;;8.80;;
44446;SDS011;30152;52.066;5.358;2022-07-23T11:46:58;11.23;;;10.23;;
44446;SDS011;30152;52.066;5.358;2022-07-23T11:49:25;8.20;;;1.33;;
44446;SDS011;30152;52.066;5.358;2022-07-23T11:52:04;5.30;;;1.60;;
44446;SDS011;30152;52.066;5.358;2022-07-23T11:54:30;5.45;;;1.40;;
44446;SDS011;30152;52.066;5.358;2022-07-23T11:56:56;405.70;;;263.60;;
44446;SDS011;30152;52.066;5.358;2022-07-23T11:59:23;5.80;;;1.45;;
44446;SDS011;30152;52.066;5.358;2022-07-23T12:02:22;3.58;;;1.17;;
44446;SDS011;30152;52.066;5.358;2022-07-23T12:07:26;3.38;;;1.45;;
44446;SDS011;30152;52.066;5.358;2022-07-23T12:09:53;6.57;;;1.48;;
44446;SDS011;30152;52.066;5.358;2022-07-23T12:12:19;6.20;;;1.55;;
44446;SDS011;30152;52.066;5.358;2022-07-23T12:17:14;4.18;;;1.38;;
44446;SDS011;30152;52.066;5.358;2022-07-23T12:19:40;4.50;;;1.40;;
44446;SDS011;30152;52.066;5.358;2022-07-23T12:22:06;5.88;;;1.60;;
44446;SDS011;30152;52.066;5.358;2022-07-23T12:24:51;5.10;;;1.55;;
44446;SDS011;30152;52.066;5.358;2022-07-23T12:27:19;3.85;;;1.08;;
44446;SDS011;30152;52.066;5.358;2022-07-23T12:29:46;4.88;;;1.20;;
44446;SDS011;30152;52.066;5.358;2022-07-23T12:32:22;6.85;;;1.40;;
44446;SDS011;30152;52.066;5.358;2022-07-23T12:34:49;4.68;;;1.20;;
44446;SDS011;30152;52.066;5.358;2022-07-23T12:37:28;5.45;;;1.30;;
44446;SDS011;30152;52.066;5.358;2022-07-23T12:39:55;3.47;;;1.20;;
44446;SDS011;30152;52.066;5.358;2022-07-23T12:42:20;4.75;;;1.60;;
44446;SDS011;30152;52.066;5.358;2022-07-23T12:45:08;4.05;;;1.13;;
44446;SDS011;30152;52.066;5.358;2022-07-23T12:47:52;4.30;;;1.35;;
44446;SDS011;30152;52.066;5.358;2022-07-23T12:53:06;4.90;;;1.48;;
44446;SDS011;30152;52.066;5.358;2022-07-23T12:55:33;4.25;;;1.20;;
44446;SDS011;30152;52.066;5.358;2022-07-23T13:00:59;3.65;;;1.25;;
44446;SDS011;30152;52.066;5.358;2022-07-23T13:03:27;5.43;;;1.50;;
44446;SDS011;30152;52.066;5.358;2022-07-23T13:05:53;3.78;;;1.58;;
44446;SDS011;30152;52.066;5.358;2022-07-23T13:08:20;4.03;;;1.48;;
44446;SDS011;30152;52.066;5.358;2022-07-23T13:10:46;3.58;;;1.40;;
44446;SDS011;30152;52.066;5.358;2022-07-23T13:13:16;4.43;;;1.42;;
44446;SDS011;30152;52.066;5.358;2022-07-23T13:15:42;4.95;;;1.40;;
44446;SDS011;30152;52.066;5.358;2022-07-23T13:18:09;6.00;;;1.50;;
44446;SDS011;30152;52.066;5.358;2022-07-23T13:20:35;4.32;;;1.58;;
44446;SDS011;30152;52.066;5.358;2022-07-23T13:23:03;4.35;;;1.40;;
44446;SDS011;30152;52.066;5.358;2022-07-23T13:25:29;3.67;;;1.55;;
44446;SDS011;30152;52.066;5.358;2022-07-23T13:27:55;5.18;;;2.17;;
44446;SDS011;30152;52.066;5.358;2022-07-23T13:30:21;5.03;;;1.77;;
44446;SDS011;30152;52.066;5.358;2022-07-23T13:32:47;5.13;;;2.05;;
44446;SDS011;30152;52.066;5.358;2022-07-23T13:35:13;6.50;;;1.50;;
44446;SDS011;30152;52.066;5.358;2022-07-23T13:37:39;5.65;;;1.83;;
44446;SDS011;30152;52.066;5.358;2022-07-23T13:40:05;5.88;;;1.98;;
44446;SDS011;30152;52.066;5.358;2022-07-23T13:42:31;5.53;;;2.00;;
44446;SDS011;30152;52.066;5.358;2022-07-23T13:44:57;5.40;;;2.05;;
44446;SDS011;30152;52.066;5.358;2022-07-23T13:47:23;4.78;;;1.88;;
44446;SDS011;30152;52.066;5.358;2022-07-23T13:49:49;7.82;;;1.90;;
44446;SDS011;30152;52.066;5.358;2022-07-23T13:52:15;6.47;;;2.03;;
44446;SDS011;30152;52.066;5.358;2022-07-23T13:54:41;8.50;;;1.75;;
44446;SDS011;30152;52.066;5.358;2022-07-23T13:57:07;5.85;;;1.65;;
44446;SDS011;30152;52.066;5.358;2022-07-23T13:59:34;5.38;;;1.80;;
44446;SDS011;30152;52.066;5.358;2022-07-23T14:02:00;5.32;;;1.73;;
44446;SDS011;30152;52.066;5.358;2022-07-23T14:04:26;4.90;;;1.70;;
44446;SDS011;30152;52.066;5.358;2022-07-23T14:06:52;5.80;;;2.15;;
44446;SDS011;30152;52.066;5.358;2022-07-23T14:09:18;5.43;;;1.83;;
44446;SDS011;30152;52.066;5.358;2022-07-23T14:11:44;6.32;;;2.28;;
44446;SDS011;30152;52.066;5.358;2022-07-23T14:14:10;3.70;;;1.67;;
44446;SDS011;30152;52.066;5.358;2022-07-23T14:16:36;5.03;;;1.65;;
44446;SDS011;30152;52.066;5.358;2022-07-23T14:19:02;5.38;;;1.67;;
44446;SDS011;30152;52.066;5.358;2022-07-23T14:21:28;5.25;;;2.17;;
44446;SDS011;30152;52.066;5.358;2022-07-23T14:23:54;6.50;;;1.73;;
44446;SDS011;30152;52.066;5.358;2022-07-23T14:26:20;4.05;;;1.80;;
44446;SDS011;30152;52.066;5.358;2022-07-23T14:28:46;6.57;;;1.60;;
44446;SDS011;30152;52.066;5.358;2022-07-23T14:31:12;4.53;;;1.17;;
44446;SDS011;30152;52.066;5.358;2022-07-23T14:33:38;5.70;;;1.80;;
44446;SDS011;30152;52.066;5.358;2022-07-23T14:36:04;3.90;;;1.55;;
44446;SDS011;30152;52.066;5.358;2022-07-23T14:38:30;5.30;;;1.80;;
44446;SDS011;30152;52.066;5.358;2022-07-23T14:40:56;7.78;;;2.10;;
44446;SDS011;30152;52.066;5.358;2022-07-23T14:43:22;5.82;;;2.22;;
44446;SDS011;30152;52.066;5.358;2022-07-23T14:45:48;6.07;;;1.88;;
44446;SDS011;30152;52.066;5.358;2022-07-23T14:48:14;6.10;;;1.90;;
44446;SDS011;30152;52.066;5.358;2022-07-23T14:50:40;4.65;;;1.58;;
44446;SDS011;30152;52.066;5.358;2022-07-23T14:53:06;5.60;;;2.20;;
44446;SDS011;30152;52.066;5.358;2022-07-23T14:55:32;6.82;;;2.05;;
44446;SDS011;30152;52.066;5.358;2022-07-23T14:57:58;5.95;;;2.03;;
44446;SDS011;30152;52.066;5.358;2022-07-23T15:00:24;8.93;;;3.28;;
44446;SDS011;30152;52.066;5.358;2022-07-23T15:02:51;6.85;;;2.25;;
44446;SDS011;30152;52.066;5.358;2022-07-23T15:05:18;6.80;;;1.88;;
44446;SDS011;30152;52.066;5.358;2022-07-23T15:07:44;5.55;;;2.10;;
44446;SDS011;30152;52.066;5.358;2022-07-23T15:10:10;6.97;;;2.42;;
44446;SDS011;30152;52.066;5.358;2022-07-23T15:12:36;5.00;;;1.80;;
44446;SDS011;30152;52.066;5.358;2022-07-23T15:15:02;9.02;;;2.30;;
44446;SDS011;30152;52.066;5.358;2022-07-23T15:17:29;6.80;;;1.58;;
44446;SDS011;30152;52.066;5.358;2022-07-23T15:19:55;6.28;;;2.40;;
44446;SDS011;30152;52.066;5.358;2022-07-23T15:22:20;6.80;;;2.22;;
44446;SDS011;30152;52.066;5.358;2022-07-23T15:24:46;4.78;;;1.70;;
44446;SDS011;30152;52.066;5.358;2022-07-23T15:27:13;6.07;;;1.95;;
44446;SDS011;30152;52.066;5.358;2022-07-23T15:29:39;5.55;;;1.88;;
44446;SDS011;30152;52.066;5.358;2022-07-23T15:32:05;7.88;;;2.10;;
44446;SDS011;30152;52.066;5.358;2022-07-23T15:34:31;5.68;;;2.00;;
44446;SDS011;30152;52.066;5.358;2022-07-23T15:36:59;6.75;;;2.17;;
44446;SDS011;30152;52.066;5.358;2022-07-23T15:39:25;6.88;;;1.73;;
44446;SDS011;30152;52.066;5.358;2022-07-23T15:41:51;5.63;;;2.78;;
44446;SDS011;30152;52.066;5.358;2022-07-23T15:44:17;4.65;;;1.77;;
44446;SDS011;30152;52.066;5.358;2022-07-23T15:46:43;5.97;;;2.00;;
44446;SDS011;30152;52.066;5.358;2022-07-23T15:49:09;6.13;;;2.05;;
44446;SDS011;30152;52.066;5.358;2022-07-23T15:51:35;5.35;;;1.73;;
44446;SDS011;30152;52.066;5.358;2022-07-23T15:54:01;5.85;;;2.00;;
44446;SDS011;30152;52.066;5.358;2022-07-23T15:56:27;5.85;;;1.90;;
44446;SDS011;30152;52.066;5.358;2022-07-23T15:58:53;5.45;;;1.70;;
44446;SDS011;30152;52.066;5.358;2022-07-23T16:01:19;6.07;;;1.80;;
44446;SDS011;30152;52.066;5.358;2022-07-23T16:03:45;5.70;;;2.00;;
44446;SDS011;30152;52.066;5.358;2022-07-23T16:06:12;4.80;;;1.60;;
44446;SDS011;30152;52.066;5.358;2022-07-23T16:08:38;5.80;;;1.65;;
44446;SDS011;30152;52.066;5.358;2022-07-23T16:11:04;7.50;;;2.10;;
44446;SDS011;30152;52.066;5.358;2022-07-23T16:13:30;5.57;;;1.50;;
44446;SDS011;30152;52.066;5.358;2022-07-23T16:15:56;4.82;;;1.80;;
44446;SDS011;30152;52.066;5.358;2022-07-23T16:18:23;5.18;;;1.77;;
44446;SDS011;30152;52.066;5.358;2022-07-23T16:20:50;5.78;;;1.90;;
44446;SDS011;30152;52.066;5.358;2022-07-23T16:23:16;16.15;;;2.47;;
44446;SDS011;30152;52.066;5.358;2022-07-23T16:25:42;1999.90;;;999.90;;
44446;SDS011;30152;52.066;5.358;2022-07-23T16:28:08;1999.90;;;999.90;;
44446;SDS011;30152;52.066;5.358;2022-07-23T16:30:36;1999.90;;;999.90;;
44446;SDS011;30152;52.066;5.358;2022-07-23T16:33:03;1999.90;;;999.90;;
44446;SDS011;30152;52.066;5.358;2022-07-23T16:35:29;1999.90;;;999.90;;
44446;SDS011;30152;52.066;5.358;2022-07-23T16:37:55;1999.90;;;999.90;;
44446;SDS011;30152;52.066;5.358;2022-07-23T16:40:24;1999.90;;;999.90;;
44446;SDS011;30152;52.066;5.358;2022-07-23T16:42:51;1999.90;;;999.90;;
44446;SDS011;30152;52.066;5.358;2022-07-23T16:45:17;1999.90;;;999.90;;
44446;SDS011;30152;52.066;5.358;2022-07-23T16:47:43;1999.90;;;999.90;;
44446;SDS011;30152;52.066;5.358;2022-07-23T16:50:09;1999.90;;;999.90;;
44446;SDS011;30152;52.066;5.358;2022-07-23T16:52:35;1999.90;;;999.90;;
44446;SDS011;30152;52.066;5.358;2022-07-23T16:55:02;1999.90;;;999.90;;
44446;SDS011;30152;52.066;5.358;2022-07-23T16:57:29;1999.90;;;999.90;;
44446;SDS011;30152;52.066;5.358;2022-07-23T16:59:55;1999.90;;;999.90;;
44446;SDS011;30152;52.066;5.358;2022-07-23T17:02:21;1999.90;;;999.90;;
44446;SDS011;30152;52.066;5.358;2022-07-23T17:04:47;1999.90;;;999.90;;
44446;SDS011;30152;52.066;5.358;2022-07-23T17:07:13;1999.90;;;999.90;;
44446;SDS011;30152;52.066;5.358;2022-07-23T17:09:38;1999.90;;;999.90;;
44446;SDS011;30152;52.066;5.358;2022-07-23T17:12:04;1999.90;;;999.90;;
44446;SDS011;30152;52.066;5.358;2022-07-23T17:14:30;1999.90;;;999.90;;
44446;SDS011;30152;52.066;5.358;2022-07-23T17:16:57;1999.90;;;999.90;;
44446;SDS011;30152;52.066;5.358;2022-07-23T17:19:23;1999.90;;;999.90;;
44446;SDS011;30152;52.066;5.358;2022-07-23T17:21:49;1999.90;;;999.90;;
44446;SDS011;30152;52.066;5.358;2022-07-23T17:24:15;1999.90;;;999.90;;
44446;SDS011;30152;52.066;5.358;2022-07-23T17:26:41;1999.90;;;999.90;;
44446;SDS011;30152;52.066;5.358;2022-07-23T17:29:07;1999.90;;;999.90;;
44446;SDS011;30152;52.066;5.358;2022-07-23T17:31:33;1999.90;;;999.90;;
44446;SDS011;30152;52.066;5.358;2022-07-23T17:33:59;1999.90;;;999.90;;
44446;SDS011;30152;52.066;5.358;2022-07-23T17:36:24;1999.90;;;999.90;;
44446;SDS011;30152;52.066;5.358;2022-07-23T17:38:50;1999.90;;;999.90;;
44446;SDS011;30152;52.066;5.358;2022-07-23T17:41:16;1999.90;;;999.90;;
44446;SDS011;30152;52.066;5.358;2022-07-23T17:43:42;1999.90;;;999.90;;
44446;SDS011;30152;52.066;5.358;2022-07-23T17:46:08;7.28;;;2.78;;
44446;SDS011;30152;52.066;5.358;2022-07-23T17:48:34;6.05;;;2.42;;
44446;SDS011;30152;52.066;5.358;2022-07-23T17:51:00;5.18;;;2.25;;
44446;SDS011;30152;52.066;5.358;2022-07-23T17:53:27;7.75;;;2.47;;
44446;SDS011;30152;52.066;5.358;2022-07-23T17:55:53;5.72;;;2.30;;
44446;SDS011;30152;52.066;5.358;2022-07-23T17:58:19;7.53;;;2.35;;
44446;SDS011;30152;52.066;5.358;2022-07-23T18:00:45;7.57;;;2.40;;
44446;SDS011;30152;52.066;5.358;2022-07-23T18:03:11;6.95;;;2.53;;
44446;SDS011;30152;52.066;5.358;2022-07-23T18:05:37;5.70;;;2.40;;
44446;SDS011;30152;52.066;5.358;2022-07-23T18:08:05;6.45;;;2.53;;
44446;SDS011;30152;52.066;5.358;2022-07-23T18:10:32;6.97;;;2.45;;
44446;SDS011;30152;52.066;5.358;2022-07-23T18:12:58;9.70;;;2.67;;
44446;SDS011;30152;52.066;5.358;2022-07-23T18:15:24;6.05;;;2.58;;
44446;SDS011;30152;52.066;5.358;2022-07-23T18:17:50;5.55;;;2.13;;
44446;SDS011;30152;52.066;5.358;2022-07-23T18:20:16;5.22;;;2.13;;
44446;SDS011;30152;52.066;5.358;2022-07-23T18:22:42;4.70;;;2.10;;
44446;SDS011;30152;52.066;5.358;2022-07-23T18:25:08;6.38;;;2.60;;
44446;SDS011;30152;52.066;5.358;2022-07-23T18:27:35;5.25;;;2.25;;
44446;SDS011;30152;52.066;5.358;2022-07-23T18:30:02;7.03;;;2.25;;
44446;SDS011;30152;52.066;5.358;2022-07-23T18:32:29;5.15;;;2.22;;
44446;SDS011;30152;52.066;5.358;2022-07-23T18:34:55;8.85;;;2.35;;
44446;SDS011;30152;52.066;5.358;2022-07-23T18:37:21;6.70;;;2.30;;
44446;SDS011;30152;52.066;5.358;2022-07-23T18:39:47;5.30;;;2.25;;
44446;SDS011;30152;52.066;5.358;2022-07-23T18:42:14;5.43;;;2.58;;
44446;SDS011;30152;52.066;5.358;2022-07-23T18:44:40;6.65;;;2.47;;
44446;SDS011;30152;52.066;5.358;2022-07-23T18:47:06;5.53;;;2.40;;
44446;SDS011;30152;52.066;5.358;2022-07-23T18:49:32;4.38;;;2.10;;
44446;SDS011;30152;52.066;5.358;2022-07-23T18:51:58;5.47;;;2.60;;
44446;SDS011;30152;52.066;5.358;2022-07-23T18:54:25;7.30;;;2.70;;
44446;SDS011;30152;52.066;5.358;2022-07-23T18:56:51;4.60;;;2.03;;
44446;SDS011;30152;52.066;5.358;2022-07-23T18:59:16;4.72;;;2.03;;
44446;SDS011;30152;52.066;5.358;2022-07-23T19:01:42;5.63;;;2.40;;
44446;SDS011;30152;52.066;5.358;2022-07-23T19:04:09;5.28;;;2.28;;
44446;SDS011;30152;52.066;5.358;2022-07-23T19:06:35;5.22;;;2.50;;
44446;SDS011;30152;52.066;5.358;2022-07-23T19:09:01;4.35;;;2.40;;
44446;SDS011;30152;52.066;5.358;2022-07-23T19:11:28;6.18;;;2.85;;
44446;SDS011;30152;52.066;5.358;2022-07-23T19:13:54;6.05;;;2.45;;
44446;SDS011;30152;52.066;5.358;2022-07-23T19:16:20;5.53;;;2.80;;
44446;SDS011;30152;52.066;5.358;2022-07-23T19:18:46;6.68;;;3.00;;
44446;SDS011;30152;52.066;5.358;2022-07-23T19:21:11;7.57;;;2.70;;
44446;SDS011;30152;52.066;5.358;2022-07-23T19:23:37;1999.90;;;999.90;;
44446;SDS011;30152;52.066;5.358;2022-07-23T19:26:03;1999.90;;;999.90;;
44446;SDS011;30152;52.066;5.358;2022-07-23T19:28:30;7.07;;;2.50;;
44446;SDS011;30152;52.066;5.358;2022-07-23T19:30:56;6.72;;;2.60;;
44446;SDS011;30152;52.066;5.358;2022-07-23T19:33:22;6.82;;;2.92;;
44446;SDS011;30152;52.066;5.358;2022-07-23T19:35:47;52.40;;;12.80;;
44446;SDS011;30152;52.066;5.358;2022-07-23T19:38:14;50.65;;;4.85;;
44446;SDS011;30152;52.066;5.358;2022-07-23T19:40:40;1999.90;;;999.90;;
44446;SDS011;30152;52.066;5.358;2022-07-23T19:43:06;1999.90;;;999.90;;
44446;SDS011;30152;52.066;5.358;2022-07-23T19:45:32;1999.90;;;999.90;;
44446;SDS011;30152;52.066;5.358;2022-07-23T19:47:58;1999.90;;;999.90;;
44446;SDS011;30152;52.066;5.358;2022-07-23T19:50:24;1999.90;;;999.90;;
44446;SDS011;30152;52.066;5.358;2022-07-23T19:52:51;1999.90;;;999.90;;
44446;SDS011;30152;52.066;5.358;2022-07-23T19:55:17;101.82;;;21.02;;
44446;SDS011;30152;52.066;5.358;2022-07-23T19:57:43;8.88;;;4.45;;
44446;SDS011;30152;52.066;5.358;2022-07-23T20:00:09;49.42;;;46.83;;
44446;SDS011;30152;52.066;5.358;2022-07-23T20:02:37;17.35;;;15.98;;
44446;SDS011;30152;52.066;5.358;2022-07-23T20:05:03;7.50;;;4.10;;
44446;SDS011;30152;52.066;5.358;2022-07-23T20:07:31;1999.90;;;999.90;;
44446;SDS011;30152;52.066;5.358;2022-07-23T20:09:57;1999.90;;;999.90;;
44446;SDS011;30152;52.066;5.358;2022-07-23T20:12:23;1999.90;;;999.90;;
44446;SDS011;30152;52.066;5.358;2022-07-23T20:14:49;10.52;;;5.40;;
44446;SDS011;30152;52.066;5.358;2022-07-23T20:17:15;11.55;;;5.35;;
44446;SDS011;30152;52.066;5.358;2022-07-23T20:19:41;9.80;;;4.97;;
44446;SDS011;30152;52.066;5.358;2022-07-23T20:22:07;9.80;;;4.90;;
44446;SDS011;30152;52.066;5.358;2022-07-23T20:24:33;11.35;;;5.00;;
44446;SDS011;30152;52.066;5.358;2022-07-23T20:26:59;10.63;;;5.32;;
44446;SDS011;30152;52.066;5.358;2022-07-23T20:29:24;10.23;;;4.50;;
44446;SDS011;30152;52.066;5.358;2022-07-23T20:31:50;11.43;;;5.03;;
44446;SDS011;30152;52.066;5.358;2022-07-23T20:34:17;9.57;;;4.82;;
44446;SDS011;30152;52.066;5.358;2022-07-23T20:36:43;11.18;;;5.30;;
44446;SDS011;30152;52.066;5.358;2022-07-23T20:39:09;9.93;;;4.20;;
44446;SDS011;30152;52.066;5.358;2022-07-23T20:41:36;8.68;;;3.83;;
44446;SDS011;30152;52.066;5.358;2022-07-23T20:44:04;9.75;;;4.25;;
44446;SDS011;30152;52.066;5.358;2022-07-23T20:46:30;8.90;;;4.25;;
44446;SDS011;30152;52.066;5.358;2022-07-23T20:48:56;9.27;;;4.63;;
44446;SDS011;30152;52.066;5.358;2022-07-23T20:51:22;8.50;;;4.30;;
44446;SDS011;30152;52.066;5.358;2022-07-23T20:53:48;7.22;;;4.03;;
44446;SDS011;30152;52.066;5.358;2022-07-23T20:56:14;7.13;;;3.60;;
44446;SDS011;30152;52.066;5.358;2022-07-23T20:58:40;10.18;;;4.55;;
44446;SDS011;30152;52.066;5.358;2022-07-23T21:01:07;8.43;;;4.25;;
44446;SDS011;30152;52.066;5.358;2022-07-23T21:03:33;7.50;;;4.20;;
44446;SDS011;30152;52.066;5.358;2022-07-23T21:05:59;7.88;;;4.45;;
44446;SDS011;30152;52.066;5.358;2022-07-23T21:08:25;11.00;;;4.28;;
44446;SDS011;30152;52.066;5.358;2022-07-23T21:10:51;6.70;;;3.75;;
44446;SDS011;30152;52.066;5.358;2022-07-23T21:13:16;8.32;;;4.03;;
44446;SDS011;30152;52.066;5.358;2022-07-23T21:15:42;9.50;;;4.18;;
44446;SDS011;30152;52.066;5.358;2022-07-23T21:18:08;8.05;;;4.47;;
